sensor_id;sensor_type;location;lat;lon;timestamp;P1;durP1;ratioP1;P2;durP2;ratioP2
29422;SDS011;16399;51.686;8.684;2024-02-26T00:00:10;3.08;;;1.37;;
29422;SDS011;16399;51.686;8.684;2024-02-26T00:03:12;2.72;;;1.42;;
29422;SDS011;16399;51.686;8.684;2024-02-26T00:06:15;2.77;;;1.27;;
29422;SDS011;16399;51.686;8.684;2024-02-26T00:09:18;4.50;;;1.27;;
29422;SDS011;16399;51.686;8.684;2024-02-26T00:12:21;3.55;;;1.42;;
29422;SDS011;16399;51.686;8.684;2024-02-26T00:15:23;3.98;;;1.37;;
29422;SDS011;16399;51.686;8.684;2024-02-26T00:18:25;3.40;;;1.65;;
29422;SDS011;16399;51.686;8.684;2024-02-26T00:21:28;3.67;;;1.40;;
29422;SDS011;16399;51.686;8.684;2024-02-26T00:24:30;4.30;;;1.37;;
29422;SDS011;16399;51.686;8.684;2024-02-26T00:27:32;4.37;;;1.20;;
29422;SDS011;16399;51.686;8.684;2024-02-26T00:30:34;1.90;;;0.98;;
29422;SDS011;16399;51.686;8.684;2024-02-26T00:33:37;2.17;;;1.10;;
29422;SDS011;16399;51.686;8.684;2024-02-26T00:36:39;2.17;;;0.98;;
29422;SDS011;16399;51.686;8.684;2024-02-26T00:39:41;2.85;;;1.25;;
29422;SDS011;16399;51.686;8.684;2024-02-26T00:42:45;4.17;;;1.50;;
29422;SDS011;16399;51.686;8.684;2024-02-26T00:45:48;2.58;;;0.98;;
29422;SDS011;16399;51.686;8.684;2024-02-26T00:48:52;2.75;;;1.10;;
29422;SDS011;16399;51.686;8.684;2024-02-26T00:51:54;2.45;;;1.00;;
29422;SDS011;16399;51.686;8.684;2024-02-26T00:54:57;2.67;;;1.05;;
29422;SDS011;16399;51.686;8.684;2024-02-26T00:57:59;3.25;;;1.20;;
29422;SDS011;16399;51.686;8.684;2024-02-26T01:01:01;3.90;;;1.17;;
29422;SDS011;16399;51.686;8.684;2024-02-26T01:04:03;4.65;;;1.27;;
29422;SDS011;16399;51.686;8.684;2024-02-26T01:07:06;1.85;;;1.10;;
29422;SDS011;16399;51.686;8.684;2024-02-26T01:10:08;3.52;;;1.22;;
29422;SDS011;16399;51.686;8.684;2024-02-26T01:13:11;4.90;;;1.77;;
29422;SDS011;16399;51.686;8.684;2024-02-26T01:16:13;3.47;;;1.40;;
29422;SDS011;16399;51.686;8.684;2024-02-26T01:19:15;3.85;;;1.22;;
29422;SDS011;16399;51.686;8.684;2024-02-26T01:22:18;2.95;;;1.20;;
29422;SDS011;16399;51.686;8.684;2024-02-26T01:25:20;1.98;;;1.10;;
29422;SDS011;16399;51.686;8.684;2024-02-26T01:28:22;1.77;;;0.90;;
29422;SDS011;16399;51.686;8.684;2024-02-26T01:31:25;3.92;;;1.40;;
29422;SDS011;16399;51.686;8.684;2024-02-26T01:34:27;3.40;;;1.42;;
29422;SDS011;16399;51.686;8.684;2024-02-26T01:37:29;4.25;;;1.30;;
29422;SDS011;16399;51.686;8.684;2024-02-26T01:40:31;5.58;;;1.40;;
29422;SDS011;16399;51.686;8.684;2024-02-26T01:43:34;2.62;;;1.07;;
29422;SDS011;16399;51.686;8.684;2024-02-26T01:46:36;3.47;;;1.30;;
29422;SDS011;16399;51.686;8.684;2024-02-26T01:49:38;2.67;;;1.40;;
29422;SDS011;16399;51.686;8.684;2024-02-26T01:52:42;1.80;;;0.93;;
29422;SDS011;16399;51.686;8.684;2024-02-26T01:55:44;3.62;;;1.02;;
29422;SDS011;16399;51.686;8.684;2024-02-26T01:58:47;2.98;;;1.20;;
29422;SDS011;16399;51.686;8.684;2024-02-26T02:01:52;3.77;;;1.40;;
29422;SDS011;16399;51.686;8.684;2024-02-26T02:04:55;2.50;;;1.15;;
29422;SDS011;16399;51.686;8.684;2024-02-26T02:07:57;2.95;;;0.98;;
29422;SDS011;16399;51.686;8.684;2024-02-26T02:11:00;2.50;;;1.10;;
29422;SDS011;16399;51.686;8.684;2024-02-26T02:14:03;2.37;;;1.00;;
29422;SDS011;16399;51.686;8.684;2024-02-26T02:17:05;3.15;;;0.93;;
29422;SDS011;16399;51.686;8.684;2024-02-26T02:20:08;2.17;;;0.88;;
29422;SDS011;16399;51.686;8.684;2024-02-26T02:23:11;3.20;;;1.00;;
29422;SDS011;16399;51.686;8.684;2024-02-26T02:26:14;2.47;;;0.90;;
29422;SDS011;16399;51.686;8.684;2024-02-26T02:29:17;3.87;;;1.67;;
29422;SDS011;16399;51.686;8.684;2024-02-26T02:32:19;2.37;;;0.93;;
29422;SDS011;16399;51.686;8.684;2024-02-26T02:35:22;1.80;;;0.88;;
29422;SDS011;16399;51.686;8.684;2024-02-26T02:38:25;2.17;;;0.98;;
29422;SDS011;16399;51.686;8.684;2024-02-26T02:41:29;2.75;;;1.10;;
29422;SDS011;16399;51.686;8.684;2024-02-26T02:44:31;2.77;;;1.15;;
29422;SDS011;16399;51.686;8.684;2024-02-26T02:47:35;2.65;;;1.02;;
29422;SDS011;16399;51.686;8.684;2024-02-26T02:50:56;2.60;;;1.10;;
29422;SDS011;16399;51.686;8.684;2024-02-26T02:53:59;3.30;;;1.10;;
29422;SDS011;16399;51.686;8.684;2024-02-26T02:57:02;2.40;;;1.10;;
29422;SDS011;16399;51.686;8.684;2024-02-26T03:00:05;3.00;;;1.00;;
29422;SDS011;16399;51.686;8.684;2024-02-26T03:03:07;2.37;;;1.10;;
29422;SDS011;16399;51.686;8.684;2024-02-26T03:06:10;2.77;;;1.12;;
29422;SDS011;16399;51.686;8.684;2024-02-26T03:09:12;3.42;;;1.07;;
29422;SDS011;16399;51.686;8.684;2024-02-26T03:12:14;3.17;;;1.15;;
29422;SDS011;16399;51.686;8.684;2024-02-26T03:15:17;2.52;;;1.10;;
29422;SDS011;16399;51.686;8.684;2024-02-26T03:18:19;3.27;;;1.22;;
29422;SDS011;16399;51.686;8.684;2024-02-26T03:21:22;2.52;;;1.00;;
29422;SDS011;16399;51.686;8.684;2024-02-26T03:24:25;2.60;;;1.07;;
29422;SDS011;16399;51.686;8.684;2024-02-26T03:27:27;3.90;;;1.30;;
29422;SDS011;16399;51.686;8.684;2024-02-26T03:30:30;3.22;;;1.20;;
29422;SDS011;16399;51.686;8.684;2024-02-26T03:33:32;2.87;;;1.20;;
29422;SDS011;16399;51.686;8.684;2024-02-26T03:36:34;2.98;;;1.20;;
29422;SDS011;16399;51.686;8.684;2024-02-26T03:39:36;2.02;;;0.95;;
29422;SDS011;16399;51.686;8.684;2024-02-26T03:42:39;3.85;;;1.30;;
29422;SDS011;16399;51.686;8.684;2024-02-26T03:45:41;3.77;;;1.27;;
29422;SDS011;16399;51.686;8.684;2024-02-26T03:48:44;2.92;;;1.10;;
29422;SDS011;16399;51.686;8.684;2024-02-26T03:51:46;3.60;;;1.12;;
29422;SDS011;16399;51.686;8.684;2024-02-26T03:54:49;2.30;;;0.90;;
29422;SDS011;16399;51.686;8.684;2024-02-26T03:57:51;3.12;;;1.25;;
29422;SDS011;16399;51.686;8.684;2024-02-26T04:00:54;2.27;;;0.80;;
29422;SDS011;16399;51.686;8.684;2024-02-26T04:03:56;3.52;;;1.30;;
29422;SDS011;16399;51.686;8.684;2024-02-26T04:06:58;3.70;;;1.10;;
29422;SDS011;16399;51.686;8.684;2024-02-26T04:10:01;2.58;;;1.20;;
29422;SDS011;16399;51.686;8.684;2024-02-26T04:13:07;2.75;;;1.25;;
29422;SDS011;16399;51.686;8.684;2024-02-26T04:16:09;2.72;;;1.07;;
29422;SDS011;16399;51.686;8.684;2024-02-26T04:19:11;3.17;;;1.10;;
29422;SDS011;16399;51.686;8.684;2024-02-26T04:22:14;3.50;;;1.15;;
29422;SDS011;16399;51.686;8.684;2024-02-26T04:25:16;3.25;;;1.30;;
29422;SDS011;16399;51.686;8.684;2024-02-26T04:28:18;3.17;;;1.32;;
29422;SDS011;16399;51.686;8.684;2024-02-26T04:31:25;4.15;;;1.02;;
29422;SDS011;16399;51.686;8.684;2024-02-26T04:34:27;2.47;;;1.10;;
29422;SDS011;16399;51.686;8.684;2024-02-26T04:37:30;2.25;;;0.82;;
29422;SDS011;16399;51.686;8.684;2024-02-26T04:40:32;2.27;;;1.10;;
29422;SDS011;16399;51.686;8.684;2024-02-26T04:43:35;5.00;;;1.27;;
29422;SDS011;16399;51.686;8.684;2024-02-26T04:46:42;3.15;;;1.20;;
29422;SDS011;16399;51.686;8.684;2024-02-26T04:49:44;2.80;;;1.15;;
29422;SDS011;16399;51.686;8.684;2024-02-26T04:52:46;4.40;;;1.47;;
29422;SDS011;16399;51.686;8.684;2024-02-26T04:55:48;4.10;;;1.40;;
29422;SDS011;16399;51.686;8.684;2024-02-26T04:58:51;3.62;;;1.50;;
29422;SDS011;16399;51.686;8.684;2024-02-26T05:01:53;5.70;;;1.50;;
29422;SDS011;16399;51.686;8.684;2024-02-26T05:04:55;2.15;;;1.05;;
29422;SDS011;16399;51.686;8.684;2024-02-26T05:07:58;2.75;;;1.05;;
29422;SDS011;16399;51.686;8.684;2024-02-26T05:11:00;3.10;;;1.30;;
29422;SDS011;16399;51.686;8.684;2024-02-26T05:14:04;6.17;;;1.35;;
29422;SDS011;16399;51.686;8.684;2024-02-26T05:17:07;2.40;;;1.20;;
29422;SDS011;16399;51.686;8.684;2024-02-26T05:20:09;3.10;;;1.30;;
29422;SDS011;16399;51.686;8.684;2024-02-26T05:23:12;3.77;;;1.60;;
29422;SDS011;16399;51.686;8.684;2024-02-26T05:26:20;3.70;;;1.52;;
29422;SDS011;16399;51.686;8.684;2024-02-26T05:29:25;3.22;;;1.20;;
29422;SDS011;16399;51.686;8.684;2024-02-26T05:32:28;3.37;;;1.42;;
29422;SDS011;16399;51.686;8.684;2024-02-26T05:35:30;4.60;;;1.32;;
29422;SDS011;16399;51.686;8.684;2024-02-26T05:38:32;3.98;;;1.52;;
29422;SDS011;16399;51.686;8.684;2024-02-26T05:41:35;3.47;;;1.40;;
29422;SDS011;16399;51.686;8.684;2024-02-26T05:44:37;4.78;;;1.47;;
29422;SDS011;16399;51.686;8.684;2024-02-26T05:47:39;4.40;;;1.70;;
29422;SDS011;16399;51.686;8.684;2024-02-26T05:50:45;4.42;;;1.87;;
29422;SDS011;16399;51.686;8.684;2024-02-26T05:53:47;4.00;;;1.77;;
29422;SDS011;16399;51.686;8.684;2024-02-26T05:56:51;3.27;;;1.55;;
29422;SDS011;16399;51.686;8.684;2024-02-26T05:59:54;4.70;;;2.30;;
29422;SDS011;16399;51.686;8.684;2024-02-26T06:02:56;6.87;;;1.98;;
29422;SDS011;16399;51.686;8.684;2024-02-26T06:05:58;5.65;;;2.20;;
29422;SDS011;16399;51.686;8.684;2024-02-26T06:09:00;4.08;;;1.62;;
29422;SDS011;16399;51.686;8.684;2024-02-26T06:12:04;4.70;;;1.90;;
29422;SDS011;16399;51.686;8.684;2024-02-26T06:15:07;9.00;;;1.87;;
29422;SDS011;16399;51.686;8.684;2024-02-26T06:18:10;4.03;;;1.52;;
29422;SDS011;16399;51.686;8.684;2024-02-26T06:21:12;3.45;;;1.47;;
29422;SDS011;16399;51.686;8.684;2024-02-26T06:24:14;4.47;;;1.87;;
29422;SDS011;16399;51.686;8.684;2024-02-26T06:27:17;4.80;;;1.85;;
29422;SDS011;16399;51.686;8.684;2024-02-26T06:30:19;4.87;;;1.77;;
29422;SDS011;16399;51.686;8.684;2024-02-26T06:33:21;5.60;;;2.58;;
29422;SDS011;16399;51.686;8.684;2024-02-26T06:36:23;5.70;;;2.60;;
29422;SDS011;16399;51.686;8.684;2024-02-26T06:39:26;5.40;;;2.70;;
29422;SDS011;16399;51.686;8.684;2024-02-26T06:42:28;5.87;;;2.08;;
29422;SDS011;16399;51.686;8.684;2024-02-26T06:45:31;5.47;;;2.40;;
29422;SDS011;16399;51.686;8.684;2024-02-26T06:48:33;6.97;;;2.10;;
29422;SDS011;16399;51.686;8.684;2024-02-26T06:51:37;5.67;;;2.12;;
29422;SDS011;16399;51.686;8.684;2024-02-26T06:54:39;6.55;;;2.17;;
29422;SDS011;16399;51.686;8.684;2024-02-26T06:57:42;4.83;;;2.30;;
29422;SDS011;16399;51.686;8.684;2024-02-26T07:00:44;8.45;;;2.55;;
29422;SDS011;16399;51.686;8.684;2024-02-26T07:03:47;4.50;;;2.05;;
29422;SDS011;16399;51.686;8.684;2024-02-26T07:06:49;5.42;;;2.15;;
29422;SDS011;16399;51.686;8.684;2024-02-26T07:09:51;5.40;;;2.10;;
29422;SDS011;16399;51.686;8.684;2024-02-26T07:12:55;4.35;;;1.98;;
29422;SDS011;16399;51.686;8.684;2024-02-26T07:15:57;5.12;;;1.92;;
29422;SDS011;16399;51.686;8.684;2024-02-26T07:18:59;6.85;;;2.25;;
29422;SDS011;16399;51.686;8.684;2024-02-26T07:22:02;5.50;;;1.98;;
29422;SDS011;16399;51.686;8.684;2024-02-26T07:25:04;4.20;;;1.80;;
29422;SDS011;16399;51.686;8.684;2024-02-26T07:28:08;4.92;;;1.92;;
29422;SDS011;16399;51.686;8.684;2024-02-26T07:31:10;3.85;;;1.77;;
29422;SDS011;16399;51.686;8.684;2024-02-26T07:34:13;3.40;;;1.52;;
29422;SDS011;16399;51.686;8.684;2024-02-26T07:37:15;4.50;;;1.70;;
29422;SDS011;16399;51.686;8.684;2024-02-26T07:40:17;5.75;;;1.90;;
29422;SDS011;16399;51.686;8.684;2024-02-26T07:43:20;5.65;;;2.30;;
29422;SDS011;16399;51.686;8.684;2024-02-26T07:46:22;5.80;;;2.08;;
29422;SDS011;16399;51.686;8.684;2024-02-26T07:49:24;4.70;;;1.70;;
29422;SDS011;16399;51.686;8.684;2024-02-26T07:52:26;6.87;;;1.80;;
29422;SDS011;16399;51.686;8.684;2024-02-26T07:55:29;3.58;;;1.50;;
29422;SDS011;16399;51.686;8.684;2024-02-26T07:58:34;4.20;;;1.77;;
29422;SDS011;16399;51.686;8.684;2024-02-26T08:01:37;5.33;;;2.02;;
29422;SDS011;16399;51.686;8.684;2024-02-26T08:04:40;4.00;;;1.82;;
29422;SDS011;16399;51.686;8.684;2024-02-26T08:07:42;3.55;;;1.75;;
29422;SDS011;16399;51.686;8.684;2024-02-26T08:10:44;5.22;;;2.00;;
29422;SDS011;16399;51.686;8.684;2024-02-26T08:13:47;3.65;;;1.75;;
29422;SDS011;16399;51.686;8.684;2024-02-26T08:16:49;4.87;;;2.10;;
29422;SDS011;16399;51.686;8.684;2024-02-26T08:19:51;4.10;;;2.22;;
29422;SDS011;16399;51.686;8.684;2024-02-26T08:22:54;6.15;;;2.62;;
29422;SDS011;16399;51.686;8.684;2024-02-26T08:25:56;5.80;;;3.00;;
29422;SDS011;16399;51.686;8.684;2024-02-26T08:28:58;5.87;;;2.75;;
29422;SDS011;16399;51.686;8.684;2024-02-26T08:32:01;7.95;;;2.90;;
29422;SDS011;16399;51.686;8.684;2024-02-26T08:35:03;5.58;;;2.72;;
29422;SDS011;16399;51.686;8.684;2024-02-26T08:38:06;8.60;;;3.72;;
29422;SDS011;16399;51.686;8.684;2024-02-26T08:41:08;7.70;;;3.55;;
29422;SDS011;16399;51.686;8.684;2024-02-26T08:44:10;7.83;;;3.85;;
29422;SDS011;16399;51.686;8.684;2024-02-26T08:47:13;7.30;;;3.80;;
29422;SDS011;16399;51.686;8.684;2024-02-26T08:50:15;8.55;;;4.00;;
29422;SDS011;16399;51.686;8.684;2024-02-26T08:53:18;7.30;;;2.85;;
29422;SDS011;16399;51.686;8.684;2024-02-26T08:56:21;6.22;;;2.92;;
29422;SDS011;16399;51.686;8.684;2024-02-26T08:59:23;7.42;;;2.50;;
29422;SDS011;16399;51.686;8.684;2024-02-26T09:02:26;8.00;;;2.90;;
29422;SDS011;16399;51.686;8.684;2024-02-26T09:05:28;8.53;;;4.00;;
29422;SDS011;16399;51.686;8.684;2024-02-26T09:08:30;6.58;;;3.80;;
29422;SDS011;16399;51.686;8.684;2024-02-26T09:11:32;9.25;;;4.65;;
29422;SDS011;16399;51.686;8.684;2024-02-26T09:14:35;11.00;;;5.22;;
29422;SDS011;16399;51.686;8.684;2024-02-26T09:17:37;9.73;;;4.97;;
29422;SDS011;16399;51.686;8.684;2024-02-26T09:20:39;11.83;;;5.15;;
29422;SDS011;16399;51.686;8.684;2024-02-26T09:23:42;9.63;;;5.03;;
29422;SDS011;16399;51.686;8.684;2024-02-26T09:26:44;10.15;;;5.33;;
29422;SDS011;16399;51.686;8.684;2024-02-26T09:29:47;9.55;;;5.00;;
29422;SDS011;16399;51.686;8.684;2024-02-26T09:32:49;9.63;;;4.87;;
29422;SDS011;16399;51.686;8.684;2024-02-26T09:35:51;9.25;;;4.65;;
29422;SDS011;16399;51.686;8.684;2024-02-26T09:38:54;8.90;;;4.78;;
29422;SDS011;16399;51.686;8.684;2024-02-26T09:41:56;7.60;;;4.17;;
29422;SDS011;16399;51.686;8.684;2024-02-26T09:45:00;9.23;;;4.78;;
29422;SDS011;16399;51.686;8.684;2024-02-26T09:48:04;8.95;;;4.83;;
29422;SDS011;16399;51.686;8.684;2024-02-26T09:51:10;7.78;;;3.90;;
29422;SDS011;16399;51.686;8.684;2024-02-26T09:54:12;7.72;;;3.75;;
29422;SDS011;16399;51.686;8.684;2024-02-26T09:57:16;7.25;;;3.52;;
29422;SDS011;16399;51.686;8.684;2024-02-26T10:00:20;6.65;;;3.55;;
29422;SDS011;16399;51.686;8.684;2024-02-26T10:03:25;7.92;;;3.47;;
29422;SDS011;16399;51.686;8.684;2024-02-26T10:06:28;6.33;;;3.50;;
29422;SDS011;16399;51.686;8.684;2024-02-26T10:09:31;16.90;;;4.97;;
29422;SDS011;16399;51.686;8.684;2024-02-26T10:12:34;7.03;;;2.40;;
29422;SDS011;16399;51.686;8.684;2024-02-26T10:15:36;5.25;;;2.40;;
29422;SDS011;16399;51.686;8.684;2024-02-26T10:18:49;7.00;;;2.30;;
29422;SDS011;16399;51.686;8.684;2024-02-26T10:21:48;6.17;;;3.12;;
29422;SDS011;16399;51.686;8.684;2024-02-26T10:24:53;7.83;;;2.83;;
29422;SDS011;16399;51.686;8.684;2024-02-26T10:27:57;5.50;;;2.17;;
29422;SDS011;16399;51.686;8.684;2024-02-26T10:31:03;5.45;;;2.50;;
29422;SDS011;16399;51.686;8.684;2024-02-26T10:34:05;5.65;;;2.30;;
29422;SDS011;16399;51.686;8.684;2024-02-26T10:37:09;4.60;;;2.00;;
29422;SDS011;16399;51.686;8.684;2024-02-26T10:40:11;7.22;;;2.40;;
29422;SDS011;16399;51.686;8.684;2024-02-26T10:43:15;8.43;;;2.60;;
29422;SDS011;16399;51.686;8.684;2024-02-26T10:46:19;6.20;;;2.47;;
29422;SDS011;16399;51.686;8.684;2024-02-26T10:49:21;3.92;;;1.90;;
29422;SDS011;16399;51.686;8.684;2024-02-26T10:52:24;7.20;;;2.27;;
29422;SDS011;16399;51.686;8.684;2024-02-26T10:55:28;4.67;;;2.40;;
29422;SDS011;16399;51.686;8.684;2024-02-26T10:58:33;5.03;;;2.20;;
29422;SDS011;16399;51.686;8.684;2024-02-26T11:01:37;5.50;;;2.80;;
29422;SDS011;16399;51.686;8.684;2024-02-26T11:04:41;4.78;;;2.37;;
29422;SDS011;16399;51.686;8.684;2024-02-26T11:07:44;5.15;;;2.47;;
29422;SDS011;16399;51.686;8.684;2024-02-26T11:10:47;5.70;;;2.70;;
29422;SDS011;16399;51.686;8.684;2024-02-26T11:13:51;5.83;;;3.13;;
29422;SDS011;16399;51.686;8.684;2024-02-26T11:16:56;5.40;;;2.70;;
29422;SDS011;16399;51.686;8.684;2024-02-26T11:19:59;4.42;;;2.58;;
29422;SDS011;16399;51.686;8.684;2024-02-26T11:23:03;7.95;;;3.05;;
29422;SDS011;16399;51.686;8.684;2024-02-26T11:26:06;7.58;;;2.80;;
29422;SDS011;16399;51.686;8.684;2024-02-26T11:29:10;6.12;;;2.85;;
29422;SDS011;16399;51.686;8.684;2024-02-26T11:32:15;11.25;;;4.25;;
29422;SDS011;16399;51.686;8.684;2024-02-26T11:35:17;6.55;;;3.58;;
29422;SDS011;16399;51.686;8.684;2024-02-26T11:38:21;9.45;;;4.10;;
29422;SDS011;16399;51.686;8.684;2024-02-26T11:41:25;7.03;;;3.20;;
29422;SDS011;16399;51.686;8.684;2024-02-26T11:44:30;6.53;;;3.60;;
29422;SDS011;16399;51.686;8.684;2024-02-26T11:47:32;6.45;;;3.10;;
29422;SDS011;16399;51.686;8.684;2024-02-26T11:50:39;7.00;;;3.87;;
29422;SDS011;16399;51.686;8.684;2024-02-26T11:53:46;7.83;;;3.95;;
29422;SDS011;16399;51.686;8.684;2024-02-26T11:56:49;9.75;;;3.83;;
29422;SDS011;16399;51.686;8.684;2024-02-26T11:59:52;12.98;;;3.95;;
29422;SDS011;16399;51.686;8.684;2024-02-26T12:02:55;7.25;;;3.72;;
29422;SDS011;16399;51.686;8.684;2024-02-26T12:06:02;9.73;;;3.77;;
29422;SDS011;16399;51.686;8.684;2024-02-26T12:09:05;7.80;;;3.83;;
29422;SDS011;16399;51.686;8.684;2024-02-26T12:12:12;8.08;;;4.28;;
29422;SDS011;16399;51.686;8.684;2024-02-26T12:15:16;5.80;;;3.47;;
29422;SDS011;16399;51.686;8.684;2024-02-26T12:18:20;7.95;;;3.70;;
29422;SDS011;16399;51.686;8.684;2024-02-26T12:21:23;6.60;;;3.62;;
29422;SDS011;16399;51.686;8.684;2024-02-26T12:24:26;7.40;;;3.80;;
29422;SDS011;16399;51.686;8.684;2024-02-26T12:27:28;7.53;;;3.72;;
29422;SDS011;16399;51.686;8.684;2024-02-26T12:30:30;7.55;;;4.05;;
29422;SDS011;16399;51.686;8.684;2024-02-26T12:33:33;7.55;;;4.20;;
29422;SDS011;16399;51.686;8.684;2024-02-26T12:36:36;9.20;;;4.10;;
29422;SDS011;16399;51.686;8.684;2024-02-26T12:39:39;9.33;;;5.12;;
29422;SDS011;16399;51.686;8.684;2024-02-26T12:42:42;8.58;;;4.53;;
29422;SDS011;16399;51.686;8.684;2024-02-26T12:45:44;8.50;;;4.50;;
29422;SDS011;16399;51.686;8.684;2024-02-26T12:48:48;9.35;;;5.12;;
29422;SDS011;16399;51.686;8.684;2024-02-26T12:51:50;9.28;;;5.08;;
29422;SDS011;16399;51.686;8.684;2024-02-26T12:54:53;9.40;;;5.78;;
29422;SDS011;16399;51.686;8.684;2024-02-26T12:57:55;10.63;;;6.17;;
29422;SDS011;16399;51.686;8.684;2024-02-26T13:00:57;10.82;;;6.12;;
29422;SDS011;16399;51.686;8.684;2024-02-26T13:04:00;16.05;;;6.72;;
29422;SDS011;16399;51.686;8.684;2024-02-26T13:10:07;12.05;;;6.28;;
29422;SDS011;16399;51.686;8.684;2024-02-26T13:13:12;10.38;;;6.40;;
29422;SDS011;16399;51.686;8.684;2024-02-26T13:16:18;13.25;;;6.58;;
29422;SDS011;16399;51.686;8.684;2024-02-26T13:19:21;12.55;;;6.80;;
29422;SDS011;16399;51.686;8.684;2024-02-26T13:22:23;15.03;;;6.20;;
29422;SDS011;16399;51.686;8.684;2024-02-26T13:25:25;12.40;;;6.58;;
29422;SDS011;16399;51.686;8.684;2024-02-26T13:28:28;9.90;;;5.83;;
29422;SDS011;16399;51.686;8.684;2024-02-26T13:31:30;11.30;;;6.80;;
29422;SDS011;16399;51.686;8.684;2024-02-26T13:34:33;10.23;;;6.20;;
29422;SDS011;16399;51.686;8.684;2024-02-26T13:37:36;11.60;;;6.65;;
29422;SDS011;16399;51.686;8.684;2024-02-26T13:40:39;10.30;;;5.03;;
29422;SDS011;16399;51.686;8.684;2024-02-26T13:43:42;11.75;;;6.45;;
29422;SDS011;16399;51.686;8.684;2024-02-26T13:46:45;10.03;;;5.47;;
29422;SDS011;16399;51.686;8.684;2024-02-26T13:49:47;9.55;;;5.22;;
29422;SDS011;16399;51.686;8.684;2024-02-26T13:52:50;11.55;;;5.87;;
29422;SDS011;16399;51.686;8.684;2024-02-26T13:55:54;11.12;;;5.80;;
29422;SDS011;16399;51.686;8.684;2024-02-26T13:58:58;10.93;;;5.05;;
29422;SDS011;16399;51.686;8.684;2024-02-26T14:02:00;13.05;;;6.05;;
29422;SDS011;16399;51.686;8.684;2024-02-26T14:05:02;13.08;;;6.22;;
29422;SDS011;16399;51.686;8.684;2024-02-26T14:08:05;11.83;;;5.87;;
29422;SDS011;16399;51.686;8.684;2024-02-26T14:11:08;9.65;;;5.15;;
29422;SDS011;16399;51.686;8.684;2024-02-26T14:14:10;10.90;;;5.35;;
29422;SDS011;16399;51.686;8.684;2024-02-26T14:17:12;10.82;;;5.35;;
29422;SDS011;16399;51.686;8.684;2024-02-26T14:20:15;9.73;;;4.53;;
29422;SDS011;16399;51.686;8.684;2024-02-26T14:23:17;10.58;;;5.60;;
29422;SDS011;16399;51.686;8.684;2024-02-26T14:26:20;9.10;;;5.00;;
29422;SDS011;16399;51.686;8.684;2024-02-26T14:29:22;8.58;;;5.12;;
29422;SDS011;16399;51.686;8.684;2024-02-26T14:32:24;8.48;;;4.15;;
29422;SDS011;16399;51.686;8.684;2024-02-26T14:35:28;9.18;;;4.95;;
29422;SDS011;16399;51.686;8.684;2024-02-26T14:38:30;7.65;;;4.00;;
29422;SDS011;16399;51.686;8.684;2024-02-26T14:41:32;9.20;;;4.30;;
29422;SDS011;16399;51.686;8.684;2024-02-26T14:44:34;10.00;;;4.78;;
29422;SDS011;16399;51.686;8.684;2024-02-26T14:47:37;10.32;;;4.30;;
29422;SDS011;16399;51.686;8.684;2024-02-26T14:50:39;9.25;;;4.58;;
29422;SDS011;16399;51.686;8.684;2024-02-26T14:53:42;10.58;;;3.90;;
29422;SDS011;16399;51.686;8.684;2024-02-26T14:56:44;9.45;;;3.77;;
29422;SDS011;16399;51.686;8.684;2024-02-26T14:59:47;12.58;;;5.03;;
29422;SDS011;16399;51.686;8.684;2024-02-26T15:02:50;9.95;;;5.10;;
29422;SDS011;16399;51.686;8.684;2024-02-26T15:05:54;8.08;;;4.25;;
29422;SDS011;16399;51.686;8.684;2024-02-26T15:08:56;16.57;;;8.63;;
29422;SDS011;16399;51.686;8.684;2024-02-26T15:11:59;13.18;;;6.75;;
29422;SDS011;16399;51.686;8.684;2024-02-26T15:15:01;8.93;;;4.28;;
29422;SDS011;16399;51.686;8.684;2024-02-26T15:18:04;11.35;;;5.15;;
29422;SDS011;16399;51.686;8.684;2024-02-26T15:21:06;6.95;;;4.25;;
29422;SDS011;16399;51.686;8.684;2024-02-26T15:24:08;11.33;;;5.03;;
29422;SDS011;16399;51.686;8.684;2024-02-26T15:27:12;9.38;;;5.70;;
29422;SDS011;16399;51.686;8.684;2024-02-26T15:30:15;10.98;;;5.70;;
29422;SDS011;16399;51.686;8.684;2024-02-26T15:33:17;11.78;;;5.45;;
29422;SDS011;16399;51.686;8.684;2024-02-26T15:36:20;11.88;;;6.42;;
29422;SDS011;16399;51.686;8.684;2024-02-26T15:39:22;10.53;;;5.08;;
29422;SDS011;16399;51.686;8.684;2024-02-26T15:42:24;9.38;;;5.03;;
29422;SDS011;16399;51.686;8.684;2024-02-26T15:45:27;16.85;;;7.42;;
29422;SDS011;16399;51.686;8.684;2024-02-26T15:48:31;10.53;;;5.12;;
29422;SDS011;16399;51.686;8.684;2024-02-26T15:51:33;8.08;;;4.78;;
29422;SDS011;16399;51.686;8.684;2024-02-26T15:54:39;8.65;;;4.58;;
29422;SDS011;16399;51.686;8.684;2024-02-26T15:57:41;13.28;;;6.60;;
29422;SDS011;16399;51.686;8.684;2024-02-26T16:00:44;9.58;;;5.50;;
29422;SDS011;16399;51.686;8.684;2024-02-26T16:03:47;12.73;;;5.25;;
29422;SDS011;16399;51.686;8.684;2024-02-26T16:06:51;12.58;;;5.72;;
29422;SDS011;16399;51.686;8.684;2024-02-26T16:09:55;10.03;;;6.00;;
29422;SDS011;16399;51.686;8.684;2024-02-26T16:12:58;12.03;;;5.17;;
29422;SDS011;16399;51.686;8.684;2024-02-26T16:16:06;12.95;;;5.90;;
29422;SDS011;16399;51.686;8.684;2024-02-26T16:19:13;11.28;;;5.03;;
29422;SDS011;16399;51.686;8.684;2024-02-26T16:22:17;11.03;;;4.60;;
29422;SDS011;16399;51.686;8.684;2024-02-26T16:25:20;11.03;;;4.78;;
29422;SDS011;16399;51.686;8.684;2024-02-26T16:28:23;10.15;;;4.00;;
29422;SDS011;16399;51.686;8.684;2024-02-26T16:31:26;11.10;;;4.35;;
29422;SDS011;16399;51.686;8.684;2024-02-26T16:34:30;11.73;;;5.20;;
29422;SDS011;16399;51.686;8.684;2024-02-26T16:37:33;9.73;;;4.67;;
29422;SDS011;16399;51.686;8.684;2024-02-26T16:40:36;9.25;;;4.75;;
29422;SDS011;16399;51.686;8.684;2024-02-26T16:43:40;11.15;;;5.37;;
29422;SDS011;16399;51.686;8.684;2024-02-26T16:46:42;10.32;;;5.05;;
29422;SDS011;16399;51.686;8.684;2024-02-26T16:49:44;9.28;;;4.60;;
29422;SDS011;16399;51.686;8.684;2024-02-26T16:52:47;10.32;;;4.90;;
29422;SDS011;16399;51.686;8.684;2024-02-26T16:55:50;14.40;;;5.58;;
29422;SDS011;16399;51.686;8.684;2024-02-26T16:58:52;10.15;;;5.22;;
29422;SDS011;16399;51.686;8.684;2024-02-26T17:01:55;11.18;;;4.95;;
29422;SDS011;16399;51.686;8.684;2024-02-26T17:04:59;10.55;;;5.03;;
29422;SDS011;16399;51.686;8.684;2024-02-26T17:08:02;12.43;;;5.47;;
29422;SDS011;16399;51.686;8.684;2024-02-26T17:11:04;10.45;;;5.42;;
29422;SDS011;16399;51.686;8.684;2024-02-26T17:14:06;9.38;;;4.85;;
29422;SDS011;16399;51.686;8.684;2024-02-26T17:17:08;10.65;;;5.20;;
29422;SDS011;16399;51.686;8.684;2024-02-26T17:20:11;9.78;;;4.47;;
29422;SDS011;16399;51.686;8.684;2024-02-26T17:23:14;11.83;;;5.50;;
29422;SDS011;16399;51.686;8.684;2024-02-26T17:26:17;13.43;;;5.87;;
29422;SDS011;16399;51.686;8.684;2024-02-26T17:29:20;13.60;;;5.90;;
29422;SDS011;16399;51.686;8.684;2024-02-26T17:32:22;13.93;;;8.93;;
29422;SDS011;16399;51.686;8.684;2024-02-26T17:35:24;10.63;;;5.92;;
29422;SDS011;16399;51.686;8.684;2024-02-26T17:38:27;11.22;;;5.22;;
29422;SDS011;16399;51.686;8.684;2024-02-26T17:41:29;12.05;;;5.87;;
29422;SDS011;16399;51.686;8.684;2024-02-26T17:44:37;12.15;;;5.50;;
29422;SDS011;16399;51.686;8.684;2024-02-26T17:47:39;12.55;;;5.33;;
29422;SDS011;16399;51.686;8.684;2024-02-26T17:50:42;10.70;;;5.30;;
29422;SDS011;16399;51.686;8.684;2024-02-26T17:53:44;11.68;;;5.90;;
29422;SDS011;16399;51.686;8.684;2024-02-26T17:56:46;19.32;;;8.83;;
29422;SDS011;16399;51.686;8.684;2024-02-26T17:59:49;12.73;;;6.20;;
29422;SDS011;16399;51.686;8.684;2024-02-26T18:02:51;20.43;;;10.78;;
29422;SDS011;16399;51.686;8.684;2024-02-26T18:05:53;13.32;;;7.22;;
29422;SDS011;16399;51.686;8.684;2024-02-26T18:08:56;21.10;;;11.53;;
29422;SDS011;16399;51.686;8.684;2024-02-26T18:11:58;15.05;;;7.78;;
29422;SDS011;16399;51.686;8.684;2024-02-26T18:15:01;12.43;;;7.05;;
29422;SDS011;16399;51.686;8.684;2024-02-26T18:18:08;12.82;;;6.78;;
29422;SDS011;16399;51.686;8.684;2024-02-26T18:21:12;13.25;;;6.80;;